sensor_id;sensor_type;location;lat;lon;timestamp;P1;durP1;ratioP1;P2;durP2;ratioP2
70929;SDS011;58588;48.102;19.682;2023-05-18T00:02:46;3.13;;;0.30;;
70929;SDS011;58588;48.102;19.682;2023-05-18T00:05:50;6.43;;;0.20;;
70929;SDS011;58588;48.102;19.682;2023-05-18T00:08:52;2.92;;;0.20;;
70929;SDS011;58588;48.102;19.682;2023-05-18T00:11:54;1.63;;;0.10;;
70929;SDS011;58588;48.102;19.682;2023-05-18T00:14:58;1.85;;;0.20;;
70929;SDS011;58588;48.102;19.682;2023-05-18T00:18:00;0.77;;;0.10;;
70929;SDS011;58588;48.102;19.682;2023-05-18T00:21:19;5.10;;;0.27;;
70929;SDS011;58588;48.102;19.682;2023-05-18T00:24:21;1.63;;;0.15;;
70929;SDS011;58588;48.102;19.682;2023-05-18T00:27:24;1.55;;;0.15;;
70929;SDS011;58588;48.102;19.682;2023-05-18T00:30:26;1.27;;;0.10;;
70929;SDS011;58588;48.102;19.682;2023-05-18T00:33:28;3.57;;;0.10;;
70929;SDS011;58588;48.102;19.682;2023-05-18T00:36:31;5.63;;;0.20;;
70929;SDS011;58588;48.102;19.682;2023-05-18T00:39:34;4.57;;;0.10;;
70929;SDS011;58588;48.102;19.682;2023-05-18T00:42:36;1.08;;;0.10;;
70929;SDS011;58588;48.102;19.682;2023-05-18T00:45:38;2.42;;;0.38;;
70929;SDS011;58588;48.102;19.682;2023-05-18T00:48:40;1.33;;;0.20;;
70929;SDS011;58588;48.102;19.682;2023-05-18T00:51:44;1.33;;;0.13;;
70929;SDS011;58588;48.102;19.682;2023-05-18T00:54:47;3.67;;;0.50;;
70929;SDS011;58588;48.102;19.682;2023-05-18T00:57:50;2.47;;;0.10;;
70929;SDS011;58588;48.102;19.682;2023-05-18T01:00:55;4.18;;;0.20;;
70929;SDS011;58588;48.102;19.682;2023-05-18T01:03:57;1.50;;;0.10;;
70929;SDS011;58588;48.102;19.682;2023-05-18T01:07:03;1.27;;;0.10;;
70929;SDS011;58588;48.102;19.682;2023-05-18T01:10:06;1.33;;;0.10;;
70929;SDS011;58588;48.102;19.682;2023-05-18T01:13:11;2.67;;;0.20;;
70929;SDS011;58588;48.102;19.682;2023-05-18T01:16:22;2.53;;;0.20;;
70929;SDS011;58588;48.102;19.682;2023-05-18T01:23:23;3.20;;;0.20;;
70929;SDS011;58588;48.102;19.682;2023-05-18T01:26:42;1.42;;;0.20;;
70929;SDS011;58588;48.102;19.682;2023-05-18T01:29:47;2.58;;;0.25;;
70929;SDS011;58588;48.102;19.682;2023-05-18T01:32:50;3.28;;;0.30;;
70929;SDS011;58588;48.102;19.682;2023-05-18T01:35:53;4.40;;;0.20;;
70929;SDS011;58588;48.102;19.682;2023-05-18T01:38:56;2.37;;;0.27;;
70929;SDS011;58588;48.102;19.682;2023-05-18T01:42:05;1.77;;;0.20;;
70929;SDS011;58588;48.102;19.682;2023-05-18T01:45:14;1.90;;;0.47;;
70929;SDS011;58588;48.102;19.682;2023-05-18T01:48:23;2.42;;;0.30;;
70929;SDS011;58588;48.102;19.682;2023-05-18T01:51:28;1.63;;;0.20;;
70929;SDS011;58588;48.102;19.682;2023-05-18T01:54:34;3.63;;;0.30;;
70929;SDS011;58588;48.102;19.682;2023-05-18T01:57:40;4.15;;;0.60;;
70929;SDS011;58588;48.102;19.682;2023-05-18T02:00:45;4.07;;;0.30;;
70929;SDS011;58588;48.102;19.682;2023-05-18T02:03:47;2.70;;;0.30;;
70929;SDS011;58588;48.102;19.682;2023-05-18T02:06:49;3.83;;;0.30;;
70929;SDS011;58588;48.102;19.682;2023-05-18T02:09:53;1.73;;;0.20;;
70929;SDS011;58588;48.102;19.682;2023-05-18T02:12:56;4.30;;;0.60;;
70929;SDS011;58588;48.102;19.682;2023-05-18T02:15:58;1.63;;;0.20;;
70929;SDS011;58588;48.102;19.682;2023-05-18T02:19:01;2.80;;;0.38;;
70929;SDS011;58588;48.102;19.682;2023-05-18T02:22:03;3.23;;;0.40;;
70929;SDS011;58588;48.102;19.682;2023-05-18T02:25:06;3.80;;;0.60;;
70929;SDS011;58588;48.102;19.682;2023-05-18T02:28:10;2.05;;;0.28;;
70929;SDS011;58588;48.102;19.682;2023-05-18T02:31:12;5.40;;;0.43;;
70929;SDS011;58588;48.102;19.682;2023-05-18T02:34:14;1.50;;;0.20;;
70929;SDS011;58588;48.102;19.682;2023-05-18T02:37:16;2.57;;;0.13;;
70929;SDS011;58588;48.102;19.682;2023-05-18T02:40:18;3.10;;;0.30;;
70929;SDS011;58588;48.102;19.682;2023-05-18T02:43:22;3.35;;;1.17;;
70929;SDS011;58588;48.102;19.682;2023-05-18T02:46:24;5.70;;;0.70;;
70929;SDS011;58588;48.102;19.682;2023-05-18T02:49:26;2.38;;;0.47;;
70929;SDS011;58588;48.102;19.682;2023-05-18T02:52:29;2.47;;;0.60;;
70929;SDS011;58588;48.102;19.682;2023-05-18T02:55:33;6.67;;;0.50;;
70929;SDS011;58588;48.102;19.682;2023-05-18T02:58:36;1.33;;;0.30;;
70929;SDS011;58588;48.102;19.682;2023-05-18T03:01:38;3.80;;;0.35;;
70929;SDS011;58588;48.102;19.682;2023-05-18T03:04:40;2.40;;;0.25;;
70929;SDS011;58588;48.102;19.682;2023-05-18T03:07:43;3.93;;;0.73;;
70929;SDS011;58588;48.102;19.682;2023-05-18T03:10:49;2.17;;;0.20;;
70929;SDS011;58588;48.102;19.682;2023-05-18T03:13:53;4.28;;;0.20;;
70929;SDS011;58588;48.102;19.682;2023-05-18T03:16:55;1.45;;;0.15;;
70929;SDS011;58588;48.102;19.682;2023-05-18T03:19:57;1.25;;;0.10;;
70929;SDS011;58588;48.102;19.682;2023-05-18T03:22:59;5.33;;;0.30;;
70929;SDS011;58588;48.102;19.682;2023-05-18T03:26:01;7.23;;;5.20;;
70929;SDS011;58588;48.102;19.682;2023-05-18T03:29:11;2.83;;;1.02;;
70929;SDS011;58588;48.102;19.682;2023-05-18T03:32:13;2.05;;;0.20;;
70929;SDS011;58588;48.102;19.682;2023-05-18T03:35:15;0.80;;;0.10;;
70929;SDS011;58588;48.102;19.682;2023-05-18T03:38:17;3.87;;;0.30;;
70929;SDS011;58588;48.102;19.682;2023-05-18T03:41:19;4.80;;;1.40;;
70929;SDS011;58588;48.102;19.682;2023-05-18T03:44:23;2.50;;;0.30;;
70929;SDS011;58588;48.102;19.682;2023-05-18T03:47:25;1.30;;;0.20;;
70929;SDS011;58588;48.102;19.682;2023-05-18T03:50:29;0.73;;;0.10;;
70929;SDS011;58588;48.102;19.682;2023-05-18T03:53:31;1.30;;;0.20;;
70929;SDS011;58588;48.102;19.682;2023-05-18T03:56:35;1.87;;;0.20;;
70929;SDS011;58588;48.102;19.682;2023-05-18T03:59:38;3.47;;;0.60;;
70929;SDS011;58588;48.102;19.682;2023-05-18T04:02:40;1.77;;;0.20;;
70929;SDS011;58588;48.102;19.682;2023-05-18T04:05:42;2.55;;;0.28;;
70929;SDS011;58588;48.102;19.682;2023-05-18T04:08:45;1.93;;;0.20;;
70929;SDS011;58588;48.102;19.682;2023-05-18T04:11:47;3.43;;;0.60;;
70929;SDS011;58588;48.102;19.682;2023-05-18T04:14:50;5.10;;;0.88;;
70929;SDS011;58588;48.102;19.682;2023-05-18T04:17:53;7.57;;;0.82;;
70929;SDS011;58588;48.102;19.682;2023-05-18T04:20:56;5.72;;;0.80;;
70929;SDS011;58588;48.102;19.682;2023-05-18T04:23:59;2.27;;;0.30;;
70929;SDS011;58588;48.102;19.682;2023-05-18T04:27:06;3.83;;;0.40;;
70929;SDS011;58588;48.102;19.682;2023-05-18T04:30:11;3.38;;;0.57;;
70929;SDS011;58588;48.102;19.682;2023-05-18T04:33:14;2.63;;;0.52;;
70929;SDS011;58588;48.102;19.682;2023-05-18T04:36:16;2.10;;;0.20;;
70929;SDS011;58588;48.102;19.682;2023-05-18T04:39:19;1.57;;;0.20;;
70929;SDS011;58588;48.102;19.682;2023-05-18T04:42:22;3.73;;;0.20;;
70929;SDS011;58588;48.102;19.682;2023-05-18T04:45:28;3.58;;;0.20;;
70929;SDS011;58588;48.102;19.682;2023-05-18T04:48:30;1.75;;;0.20;;
70929;SDS011;58588;48.102;19.682;2023-05-18T04:51:32;1.33;;;0.10;;
70929;SDS011;58588;48.102;19.682;2023-05-18T04:54:35;2.83;;;0.20;;
70929;SDS011;58588;48.102;19.682;2023-05-18T04:57:40;2.10;;;0.20;;
70929;SDS011;58588;48.102;19.682;2023-05-18T05:00:45;1.45;;;0.20;;
70929;SDS011;58588;48.102;19.682;2023-05-18T05:03:47;1.10;;;0.10;;
70929;SDS011;58588;48.102;19.682;2023-05-18T05:06:49;1.73;;;0.20;;
70929;SDS011;58588;48.102;19.682;2023-05-18T05:09:51;5.10;;;1.00;;
70929;SDS011;58588;48.102;19.682;2023-05-18T05:12:53;3.47;;;0.80;;
70929;SDS011;58588;48.102;19.682;2023-05-18T05:15:57;3.22;;;0.32;;
70929;SDS011;58588;48.102;19.682;2023-05-18T05:18:59;4.05;;;0.40;;
70929;SDS011;58588;48.102;19.682;2023-05-18T05:22:01;5.57;;;0.40;;
70929;SDS011;58588;48.102;19.682;2023-05-18T05:25:03;4.60;;;0.40;;
70929;SDS011;58588;48.102;19.682;2023-05-18T05:28:06;1.73;;;0.20;;
70929;SDS011;58588;48.102;19.682;2023-05-18T05:31:09;2.30;;;0.30;;
70929;SDS011;58588;48.102;19.682;2023-05-18T05:34:12;8.45;;;1.60;;
70929;SDS011;58588;48.102;19.682;2023-05-18T05:37:14;2.75;;;0.55;;
70929;SDS011;58588;48.102;19.682;2023-05-18T05:40:16;3.20;;;0.57;;
70929;SDS011;58588;48.102;19.682;2023-05-18T05:43:18;1.57;;;0.10;;
70929;SDS011;58588;48.102;19.682;2023-05-18T05:46:21;3.03;;;0.43;;
70929;SDS011;58588;48.102;19.682;2023-05-18T05:49:25;6.70;;;3.67;;
70929;SDS011;58588;48.102;19.682;2023-05-18T05:52:27;4.40;;;1.30;;
70929;SDS011;58588;48.102;19.682;2023-05-18T05:55:29;2.97;;;0.60;;
70929;SDS011;58588;48.102;19.682;2023-05-18T05:58:31;2.30;;;0.30;;
70929;SDS011;58588;48.102;19.682;2023-05-18T06:01:34;2.20;;;0.50;;
70929;SDS011;58588;48.102;19.682;2023-05-18T06:04:36;2.60;;;0.52;;
70929;SDS011;58588;48.102;19.682;2023-05-18T06:07:38;1.73;;;0.20;;
70929;SDS011;58588;48.102;19.682;2023-05-18T06:10:40;4.27;;;0.20;;
70929;SDS011;58588;48.102;19.682;2023-05-18T06:13:43;6.33;;;0.90;;
70929;SDS011;58588;48.102;19.682;2023-05-18T06:16:46;4.60;;;0.70;;
70929;SDS011;58588;48.102;19.682;2023-05-18T06:19:48;2.78;;;0.30;;
70929;SDS011;58588;48.102;19.682;2023-05-18T06:22:50;1.65;;;0.28;;
70929;SDS011;58588;48.102;19.682;2023-05-18T06:25:52;2.13;;;0.40;;
70929;SDS011;58588;48.102;19.682;2023-05-18T06:28:55;2.70;;;0.40;;
70929;SDS011;58588;48.102;19.682;2023-05-18T06:31:58;3.85;;;0.73;;
70929;SDS011;58588;48.102;19.682;2023-05-18T06:35:00;2.50;;;0.47;;
70929;SDS011;58588;48.102;19.682;2023-05-18T06:38:03;5.10;;;0.38;;
70929;SDS011;58588;48.102;19.682;2023-05-18T06:41:06;4.70;;;0.80;;
70929;SDS011;58588;48.102;19.682;2023-05-18T06:44:08;2.33;;;0.50;;
70929;SDS011;58588;48.102;19.682;2023-05-18T06:47:11;3.47;;;0.60;;
70929;SDS011;58588;48.102;19.682;2023-05-18T06:50:13;4.22;;;0.70;;
70929;SDS011;58588;48.102;19.682;2023-05-18T06:53:15;5.25;;;0.70;;
70929;SDS011;58588;48.102;19.682;2023-05-18T06:56:17;4.43;;;0.80;;
70929;SDS011;58588;48.102;19.682;2023-05-18T06:59:21;5.90;;;2.00;;
70929;SDS011;58588;48.102;19.682;2023-05-18T07:02:27;3.67;;;0.65;;
70929;SDS011;58588;48.102;19.682;2023-05-18T07:05:29;4.78;;;0.70;;
70929;SDS011;58588;48.102;19.682;2023-05-18T07:08:31;2.17;;;0.30;;
70929;SDS011;58588;48.102;19.682;2023-05-18T07:11:36;2.77;;;0.50;;
70929;SDS011;58588;48.102;19.682;2023-05-18T07:14:39;10.20;;;4.40;;
70929;SDS011;58588;48.102;19.682;2023-05-18T07:17:43;9.23;;;3.50;;
70929;SDS011;58588;48.102;19.682;2023-05-18T07:20:45;5.28;;;1.60;;
70929;SDS011;58588;48.102;19.682;2023-05-18T07:23:47;5.05;;;1.40;;
70929;SDS011;58588;48.102;19.682;2023-05-18T07:26:51;4.43;;;1.03;;
70929;SDS011;58588;48.102;19.682;2023-05-18T07:29:53;3.13;;;0.60;;
70929;SDS011;58588;48.102;19.682;2023-05-18T07:32:57;1.77;;;0.30;;
70929;SDS011;58588;48.102;19.682;2023-05-18T07:35:59;3.60;;;0.60;;
70929;SDS011;58588;48.102;19.682;2023-05-18T07:39:01;7.82;;;1.00;;
70929;SDS011;58588;48.102;19.682;2023-05-18T07:42:04;3.50;;;0.70;;
70929;SDS011;58588;48.102;19.682;2023-05-18T07:45:07;4.23;;;0.70;;
70929;SDS011;58588;48.102;19.682;2023-05-18T07:48:13;5.32;;;1.02;;
70929;SDS011;58588;48.102;19.682;2023-05-18T07:51:15;4.60;;;1.08;;
70929;SDS011;58588;48.102;19.682;2023-05-18T07:54:17;4.65;;;0.80;;
70929;SDS011;58588;48.102;19.682;2023-05-18T07:57:22;4.23;;;0.70;;
70929;SDS011;58588;48.102;19.682;2023-05-18T08:00:24;3.60;;;0.83;;
70929;SDS011;58588;48.102;19.682;2023-05-18T08:03:27;3.40;;;0.50;;
70929;SDS011;58588;48.102;19.682;2023-05-18T08:06:31;5.50;;;1.17;;
70929;SDS011;58588;48.102;19.682;2023-05-18T08:09:34;3.88;;;0.63;;
70929;SDS011;58588;48.102;19.682;2023-05-18T08:12:36;1.80;;;0.30;;
70929;SDS011;58588;48.102;19.682;2023-05-18T08:15:38;2.57;;;0.30;;
70929;SDS011;58588;48.102;19.682;2023-05-18T08:18:45;2.15;;;0.30;;
70929;SDS011;58588;48.102;19.682;2023-05-18T08:21:47;3.30;;;0.50;;
70929;SDS011;58588;48.102;19.682;2023-05-18T08:24:49;3.28;;;0.50;;
70929;SDS011;58588;48.102;19.682;2023-05-18T08:27:51;4.10;;;0.50;;
70929;SDS011;58588;48.102;19.682;2023-05-18T08:30:53;6.10;;;1.00;;
70929;SDS011;58588;48.102;19.682;2023-05-18T08:33:59;4.40;;;1.00;;
70929;SDS011;58588;48.102;19.682;2023-05-18T08:37:04;4.20;;;0.95;;
70929;SDS011;58588;48.102;19.682;2023-05-18T08:40:07;3.70;;;0.80;;
70929;SDS011;58588;48.102;19.682;2023-05-18T08:43:11;3.37;;;0.70;;
70929;SDS011;58588;48.102;19.682;2023-05-18T08:46:23;2.93;;;0.57;;
70929;SDS011;58588;48.102;19.682;2023-05-18T08:49:30;2.45;;;0.30;;
70929;SDS011;58588;48.102;19.682;2023-05-18T08:52:34;3.45;;;0.40;;
70929;SDS011;58588;48.102;19.682;2023-05-18T08:55:36;3.25;;;0.68;;
70929;SDS011;58588;48.102;19.682;2023-05-18T08:58:42;3.27;;;0.70;;
70929;SDS011;58588;48.102;19.682;2023-05-18T09:01:47;4.37;;;0.50;;
70929;SDS011;58588;48.102;19.682;2023-05-18T09:04:51;2.45;;;0.43;;
70929;SDS011;58588;48.102;19.682;2023-05-18T09:07:55;3.03;;;0.47;;
70929;SDS011;58588;48.102;19.682;2023-05-18T09:10:57;2.47;;;0.35;;
70929;SDS011;58588;48.102;19.682;2023-05-18T09:14:02;2.90;;;0.40;;
70929;SDS011;58588;48.102;19.682;2023-05-18T09:17:04;2.57;;;0.40;;
70929;SDS011;58588;48.102;19.682;2023-05-18T09:20:08;3.60;;;0.77;;
70929;SDS011;58588;48.102;19.682;2023-05-18T09:23:11;4.90;;;1.17;;
70929;SDS011;58588;48.102;19.682;2023-05-18T09:26:13;6.88;;;1.35;;
70929;SDS011;58588;48.102;19.682;2023-05-18T09:29:15;5.00;;;0.83;;
70929;SDS011;58588;48.102;19.682;2023-05-18T09:35:44;3.67;;;0.50;;
70929;SDS011;58588;48.102;19.682;2023-05-18T09:38:47;3.42;;;0.50;;
70929;SDS011;58588;48.102;19.682;2023-05-18T09:41:53;2.67;;;0.40;;
70929;SDS011;58588;48.102;19.682;2023-05-18T09:44:56;1.77;;;0.40;;
70929;SDS011;58588;48.102;19.682;2023-05-18T09:47:58;2.77;;;0.50;;
70929;SDS011;58588;48.102;19.682;2023-05-18T09:51:02;2.90;;;0.40;;
70929;SDS011;58588;48.102;19.682;2023-05-18T09:54:06;3.22;;;0.70;;
70929;SDS011;58588;48.102;19.682;2023-05-18T09:57:09;3.45;;;0.45;;
70929;SDS011;58588;48.102;19.682;2023-05-18T10:00:12;3.07;;;0.50;;
70929;SDS011;58588;48.102;19.682;2023-05-18T10:03:16;2.60;;;0.50;;
70929;SDS011;58588;48.102;19.682;2023-05-18T10:06:25;4.38;;;0.60;;
70929;SDS011;58588;48.102;19.682;2023-05-18T10:09:27;4.63;;;0.68;;
70929;SDS011;58588;48.102;19.682;2023-05-18T10:12:30;3.88;;;0.73;;
70929;SDS011;58588;48.102;19.682;2023-05-18T10:15:32;3.50;;;0.57;;
70929;SDS011;58588;48.102;19.682;2023-05-18T10:18:37;2.47;;;0.40;;
70929;SDS011;58588;48.102;19.682;2023-05-18T10:21:41;3.03;;;0.32;;
70929;SDS011;58588;48.102;19.682;2023-05-18T10:24:45;2.50;;;0.40;;
70929;SDS011;58588;48.102;19.682;2023-05-18T10:27:54;3.80;;;0.40;;
70929;SDS011;58588;48.102;19.682;2023-05-18T10:30:57;3.00;;;0.40;;
70929;SDS011;58588;48.102;19.682;2023-05-18T10:34:02;3.23;;;0.70;;
70929;SDS011;58588;48.102;19.682;2023-05-18T10:37:06;3.17;;;0.60;;
70929;SDS011;58588;48.102;19.682;2023-05-18T10:40:14;3.75;;;0.60;;
70929;SDS011;58588;48.102;19.682;2023-05-18T10:43:18;2.15;;;0.32;;
70929;SDS011;58588;48.102;19.682;2023-05-18T10:46:21;2.90;;;0.50;;
70929;SDS011;58588;48.102;19.682;2023-05-18T10:49:25;2.63;;;0.50;;
70929;SDS011;58588;48.102;19.682;2023-05-18T10:52:30;2.38;;;0.45;;
70929;SDS011;58588;48.102;19.682;2023-05-18T10:55:33;3.10;;;0.40;;
70929;SDS011;58588;48.102;19.682;2023-05-18T10:58:36;4.70;;;0.60;;
70929;SDS011;58588;48.102;19.682;2023-05-18T11:01:39;4.00;;;0.50;;
70929;SDS011;58588;48.102;19.682;2023-05-18T11:04:44;3.60;;;0.60;;
70929;SDS011;58588;48.102;19.682;2023-05-18T11:07:52;5.38;;;0.68;;
70929;SDS011;58588;48.102;19.682;2023-05-18T11:11:01;2.15;;;0.40;;
70929;SDS011;58588;48.102;19.682;2023-05-18T11:14:06;4.57;;;0.50;;
70929;SDS011;58588;48.102;19.682;2023-05-18T11:17:18;3.77;;;0.60;;
70929;SDS011;58588;48.102;19.682;2023-05-18T11:20:23;3.73;;;0.50;;
70929;SDS011;58588;48.102;19.682;2023-05-18T11:23:30;2.97;;;0.60;;
70929;SDS011;58588;48.102;19.682;2023-05-18T11:26:36;3.70;;;0.60;;
70929;SDS011;58588;48.102;19.682;2023-05-18T11:29:40;4.15;;;0.70;;
70929;SDS011;58588;48.102;19.682;2023-05-18T11:32:48;3.30;;;0.70;;
70929;SDS011;58588;48.102;19.682;2023-05-18T11:35:55;4.27;;;0.60;;
70929;SDS011;58588;48.102;19.682;2023-05-18T11:39:03;4.78;;;0.50;;
70929;SDS011;58588;48.102;19.682;2023-05-18T11:42:07;3.65;;;0.70;;
70929;SDS011;58588;48.102;19.682;2023-05-18T11:45:10;4.18;;;0.68;;
70929;SDS011;58588;48.102;19.682;2023-05-18T11:48:13;3.63;;;0.40;;
70929;SDS011;58588;48.102;19.682;2023-05-18T11:51:15;2.73;;;0.47;;
70929;SDS011;58588;48.102;19.682;2023-05-18T11:54:19;8.50;;;0.50;;
70929;SDS011;58588;48.102;19.682;2023-05-18T11:57:24;3.45;;;0.55;;
70929;SDS011;58588;48.102;19.682;2023-05-18T12:00:27;3.58;;;0.80;;
70929;SDS011;58588;48.102;19.682;2023-05-18T12:03:31;2.80;;;0.50;;
70929;SDS011;58588;48.102;19.682;2023-05-18T12:06:34;3.33;;;0.70;;
70929;SDS011;58588;48.102;19.682;2023-05-18T12:09:40;4.78;;;0.77;;
70929;SDS011;58588;48.102;19.682;2023-05-18T12:12:43;2.75;;;0.60;;
70929;SDS011;58588;48.102;19.682;2023-05-18T12:15:50;3.40;;;0.65;;
70929;SDS011;58588;48.102;19.682;2023-05-18T12:18:53;3.33;;;0.60;;
70929;SDS011;58588;48.102;19.682;2023-05-18T12:21:56;3.73;;;0.60;;
70929;SDS011;58588;48.102;19.682;2023-05-18T12:24:59;2.78;;;0.52;;
70929;SDS011;58588;48.102;19.682;2023-05-18T12:28:01;3.95;;;0.80;;
70929;SDS011;58588;48.102;19.682;2023-05-18T12:31:04;4.50;;;1.20;;
70929;SDS011;58588;48.102;19.682;2023-05-18T12:34:07;3.40;;;0.70;;
70929;SDS011;58588;48.102;19.682;2023-05-18T12:37:10;4.20;;;1.00;;
70929;SDS011;58588;48.102;19.682;2023-05-18T12:40:14;3.15;;;0.60;;
70929;SDS011;58588;48.102;19.682;2023-05-18T12:43:17;4.78;;;0.93;;
70929;SDS011;58588;48.102;19.682;2023-05-18T12:46:20;5.00;;;1.00;;
70929;SDS011;58588;48.102;19.682;2023-05-18T12:49:23;4.77;;;1.30;;
70929;SDS011;58588;48.102;19.682;2023-05-18T12:52:25;4.50;;;1.00;;
70929;SDS011;58588;48.102;19.682;2023-05-18T12:55:29;4.00;;;0.80;;
70929;SDS011;58588;48.102;19.682;2023-05-18T12:58:32;4.32;;;1.00;;
70929;SDS011;58588;48.102;19.682;2023-05-18T13:01:39;5.78;;;1.33;;
70929;SDS011;58588;48.102;19.682;2023-05-18T13:04:42;5.40;;;0.90;;
70929;SDS011;58588;48.102;19.682;2023-05-18T13:07:44;6.30;;;1.20;;
70929;SDS011;58588;48.102;19.682;2023-05-18T13:10:48;5.43;;;1.60;;
70929;SDS011;58588;48.102;19.682;2023-05-18T13:13:56;5.25;;;1.42;;
70929;SDS011;58588;48.102;19.682;2023-05-18T13:16:59;5.93;;;1.52;;
70929;SDS011;58588;48.102;19.682;2023-05-18T13:20:01;5.30;;;1.50;;
70929;SDS011;58588;48.102;19.682;2023-05-18T13:23:05;7.13;;;1.50;;
70929;SDS011;58588;48.102;19.682;2023-05-18T13:26:09;5.07;;;1.40;;
70929;SDS011;58588;48.102;19.682;2023-05-18T13:29:12;4.47;;;1.10;;
70929;SDS011;58588;48.102;19.682;2023-05-18T13:32:14;4.38;;;1.10;;
70929;SDS011;58588;48.102;19.682;2023-05-18T13:35:16;5.33;;;1.23;;
70929;SDS011;58588;48.102;19.682;2023-05-18T13:38:18;5.57;;;1.50;;
70929;SDS011;58588;48.102;19.682;2023-05-18T13:41:22;6.05;;;1.65;;
70929;SDS011;58588;48.102;19.682;2023-05-18T13:44:24;5.70;;;1.70;;
70929;SDS011;58588;48.102;19.682;2023-05-18T13:47:26;6.45;;;2.22;;
70929;SDS011;58588;48.102;19.682;2023-05-18T13:50:28;5.30;;;1.80;;
70929;SDS011;58588;48.102;19.682;2023-05-18T13:53:30;5.20;;;1.60;;
70929;SDS011;58588;48.102;19.682;2023-05-18T13:56:33;5.60;;;1.90;;
70929;SDS011;58588;48.102;19.682;2023-05-18T13:59:35;5.03;;;1.73;;
70929;SDS011;58588;48.102;19.682;2023-05-18T14:02:37;6.45;;;1.75;;
70929;SDS011;58588;48.102;19.682;2023-05-18T14:05:40;5.80;;;2.00;;
70929;SDS011;58588;48.102;19.682;2023-05-18T14:08:42;5.50;;;1.73;;
70929;SDS011;58588;48.102;19.682;2023-05-18T14:11:45;5.32;;;1.60;;
70929;SDS011;58588;48.102;19.682;2023-05-18T14:14:47;4.90;;;1.50;;
70929;SDS011;58588;48.102;19.682;2023-05-18T14:17:49;5.15;;;1.60;;
70929;SDS011;58588;48.102;19.682;2023-05-18T14:20:51;5.10;;;1.60;;
70929;SDS011;58588;48.102;19.682;2023-05-18T14:23:54;5.10;;;1.57;;
70929;SDS011;58588;48.102;19.682;2023-05-18T14:26:57;7.53;;;2.63;;
70929;SDS011;58588;48.102;19.682;2023-05-18T14:29:59;8.88;;;2.70;;
70929;SDS011;58588;48.102;19.682;2023-05-18T14:33:01;10.10;;;2.95;;
70929;SDS011;58588;48.102;19.682;2023-05-18T14:36:03;6.93;;;2.27;;
70929;SDS011;58588;48.102;19.682;2023-05-18T14:39:05;6.00;;;2.23;;
70929;SDS011;58588;48.102;19.682;2023-05-18T14:42:09;5.75;;;2.05;;
70929;SDS011;58588;48.102;19.682;2023-05-18T14:45:11;5.22;;;1.77;;
70929;SDS011;58588;48.102;19.682;2023-05-18T14:48:13;7.65;;;1.88;;
70929;SDS011;58588;48.102;19.682;2023-05-18T14:51:15;5.43;;;1.90;;
70929;SDS011;58588;48.102;19.682;2023-05-18T14:54:17;5.87;;;2.27;;
70929;SDS011;58588;48.102;19.682;2023-05-18T14:57:21;5.70;;;1.85;;
70929;SDS011;58588;48.102;19.682;2023-05-18T15:00:23;7.57;;;2.30;;
70929;SDS011;58588;48.102;19.682;2023-05-18T15:03:25;5.72;;;2.38;;
70929;SDS011;58588;48.102;19.682;2023-05-18T15:06:27;5.70;;;2.03;;
70929;SDS011;58588;48.102;19.682;2023-05-18T15:09:30;5.73;;;2.20;;
70929;SDS011;58588;48.102;19.682;2023-05-18T15:12:34;6.25;;;2.50;;
70929;SDS011;58588;48.102;19.682;2023-05-18T15:15:36;6.03;;;2.05;;
70929;SDS011;58588;48.102;19.682;2023-05-18T15:18:38;5.95;;;2.47;;
70929;SDS011;58588;48.102;19.682;2023-05-18T15:21:40;6.37;;;2.40;;
70929;SDS011;58588;48.102;19.682;2023-05-18T15:24:43;6.03;;;2.30;;
70929;SDS011;58588;48.102;19.682;2023-05-18T15:27:47;7.22;;;3.17;;
70929;SDS011;58588;48.102;19.682;2023-05-18T15:30:49;7.43;;;2.90;;
70929;SDS011;58588;48.102;19.682;2023-05-18T15:33:53;7.05;;;2.70;;
70929;SDS011;58588;48.102;19.682;2023-05-18T15:36:55;7.17;;;3.00;;
70929;SDS011;58588;48.102;19.682;2023-05-18T15:39:57;7.07;;;2.90;;
70929;SDS011;58588;48.102;19.682;2023-05-18T15:43:01;7.72;;;2.92;;
70929;SDS011;58588;48.102;19.682;2023-05-18T15:46:03;10.15;;;3.80;;
70929;SDS011;58588;48.102;19.682;2023-05-18T15:49:05;18.85;;;10.95;;
70929;SDS011;58588;48.102;19.682;2023-05-18T15:52:07;9.80;;;3.80;;
70929;SDS011;58588;48.102;19.682;2023-05-18T15:55:09;10.20;;;3.27;;
70929;SDS011;58588;48.102;19.682;2023-05-18T15:58:13;8.20;;;3.10;;
70929;SDS011;58588;48.102;19.682;2023-05-18T16:01:15;8.88;;;3.60;;
70929;SDS011;58588;48.102;19.682;2023-05-18T16:04:17;9.60;;;3.58;;
70929;SDS011;58588;48.102;19.682;2023-05-18T16:07:19;7.40;;;3.07;;
70929;SDS011;58588;48.102;19.682;2023-05-18T16:10:21;10.93;;;4.67;;
70929;SDS011;58588;48.102;19.682;2023-05-18T16:13:25;14.98;;;6.72;;
70929;SDS011;58588;48.102;19.682;2023-05-18T16:16:27;13.85;;;6.43;;
70929;SDS011;58588;48.102;19.682;2023-05-18T16:19:29;12.73;;;5.22;;
70929;SDS011;58588;48.102;19.682;2023-05-18T16:22:32;9.10;;;4.10;;
70929;SDS011;58588;48.102;19.682;2023-05-18T16:25:34;8.20;;;3.60;;
70929;SDS011;58588;48.102;19.682;2023-05-18T16:28:38;10.73;;;3.20;;
70929;SDS011;58588;48.102;19.682;2023-05-18T16:31:40;7.60;;;2.83;;
70929;SDS011;58588;48.102;19.682;2023-05-18T16:34:42;7.40;;;3.00;;
70929;SDS011;58588;48.102;19.682;2023-05-18T16:37:44;8.03;;;3.50;;
70929;SDS011;58588;48.102;19.682;2023-05-18T16:40:46;8.87;;;3.13;;
70929;SDS011;58588;48.102;19.682;2023-05-18T16:43:49;7.80;;;3.20;;
70929;SDS011;58588;48.102;19.682;2023-05-18T16:46:51;7.97;;;3.13;;
70929;SDS011;58588;48.102;19.682;2023-05-18T16:49:53;6.50;;;2.90;;
70929;SDS011;58588;48.102;19.682;2023-05-18T16:52:55;7.37;;;3.40;;
70929;SDS011;58588;48.102;19.682;2023-05-18T16:55:57;7.53;;;3.27;;
70929;SDS011;58588;48.102;19.682;2023-05-18T16:59:01;8.00;;;3.05;;
70929;SDS011;58588;48.102;19.682;2023-05-18T17:02:03;6.95;;;3.20;;
70929;SDS011;58588;48.102;19.682;2023-05-18T17:05:09;8.32;;;3.35;;
70929;SDS011;58588;48.102;19.682;2023-05-18T17:08:11;8.73;;;3.53;;
70929;SDS011;58588;48.102;19.682;2023-05-18T17:11:13;8.53;;;3.57;;
70929;SDS011;58588;48.102;19.682;2023-05-18T17:14:17;16.02;;;4.15;;
70929;SDS011;58588;48.102;19.682;2023-05-18T17:17:19;10.52;;;3.85;;
70929;SDS011;58588;48.102;19.682;2023-05-18T17:20:21;9.48;;;4.00;;
70929;SDS011;58588;48.102;19.682;2023-05-18T17:23:23;8.80;;;3.53;;
70929;SDS011;58588;48.102;19.682;2023-05-18T17:26:25;11.67;;;4.87;;
70929;SDS011;58588;48.102;19.682;2023-05-18T17:29:31;11.85;;;5.85;;
70929;SDS011;58588;48.102;19.682;2023-05-18T17:32:33;9.40;;;4.55;;
70929;SDS011;58588;48.102;19.682;2023-05-18T17:35:35;9.57;;;4.35;;
70929;SDS011;58588;48.102;19.682;2023-05-18T17:38:40;7.33;;;3.50;;
70929;SDS011;58588;48.102;19.682;2023-05-18T17:41:44;10.43;;;3.67;;
70929;SDS011;58588;48.102;19.682;2023-05-18T17:44:48;7.47;;;3.55;;
70929;SDS011;58588;48.102;19.682;2023-05-18T17:47:52;9.45;;;3.90;;
70929;SDS011;58588;48.102;19.682;2023-05-18T17:54:42;14.50;;;8.43;;
70929;SDS011;58588;48.102;19.682;2023-05-18T17:57:56;11.60;;;5.40;;
70929;SDS011;58588;48.102;19.682;2023-05-18T18:01:01;12.05;;;5.40;;
70929;SDS011;58588;48.102;19.682;2023-05-18T18:04:06;12.32;;;4.32;;
70929;SDS011;58588;48.102;19.682;2023-05-18T18:07:08;11.70;;;6.20;;
70929;SDS011;58588;48.102;19.682;2023-05-18T18:10:10;15.73;;;8.43;;
70929;SDS011;58588;48.102;19.682;2023-05-18T18:13:12;14.90;;;8.00;;
70929;SDS011;58588;48.102;19.682;2023-05-18T18:16:16;14.88;;;9.32;;
70929;SDS011;58588;48.102;19.682;2023-05-18T18:19:19;24.17;;;12.25;;